Aviation Digital Data Service (ADDS)

Output produced by METARs form (0158 UTC 26 June 2017)
found at http://aviationweather.gov/adds/metars/
 
KMGW 252320Z 2600/2624 27005KT P6SM FEW100 
     FM261600 25010KT P6SM SCT050